createdAt,value
2019-03-12T00:02:30.808Z,3.43
2019-03-12T00:05:02.142Z,3.50
2019-03-12T00:07:34.121Z,3.40
2019-03-12T00:10:06.030Z,4.00
2019-03-12T00:12:36.976Z,3.90
2019-03-12T00:15:08.566Z,3.80
2019-03-12T00:17:39.673Z,3.73
2019-03-12T00:20:10.589Z,3.70
2019-03-12T00:22:41.563Z,4.27
2019-03-12T00:25:15.651Z,3.03
2019-03-12T00:27:48.760Z,4.17
2019-03-12T00:30:33.841Z,4.03
2019-03-12T00:32:59.544Z,4.50
2019-03-12T00:35:30.821Z,3.93
2019-03-12T00:38:02.042Z,4.40
2019-03-12T00:40:36.516Z,4.27
2019-03-12T00:43:07.721Z,3.77
2019-03-12T00:45:39.039Z,3.50
2019-03-12T00:48:12.174Z,4.03
2019-03-12T00:50:45.874Z,3.20
2019-03-12T00:53:17.290Z,3.97
2019-03-12T00:55:48.531Z,3.93
2019-03-12T00:58:19.869Z,4.10
2019-03-12T01:00:51.020Z,3.77
2019-03-12T01:03:22.667Z,4.00
2019-03-12T01:05:53.922Z,4.53
2019-03-12T01:08:25.169Z,4.03
2019-03-12T01:10:56.713Z,4.00
2019-03-12T01:13:27.818Z,3.90
2019-03-12T01:16:00.186Z,4.77
2019-03-12T01:18:31.368Z,4.03
2019-03-12T01:21:02.529Z,4.03
2019-03-12T01:23:33.845Z,3.93
2019-03-12T01:26:05.489Z,5.00
2019-03-12T01:28:37.954Z,4.23
2019-03-12T01:31:08.985Z,4.60
2019-03-12T01:33:40.069Z,4.83
2019-03-12T01:36:11.796Z,4.13
2019-03-12T01:38:51.942Z,4.40
2019-03-12T01:41:24.041Z,4.27
2019-03-12T01:43:57.020Z,3.73
2019-03-12T01:46:31.208Z,3.77
2019-03-12T01:49:02.507Z,3.87
2019-03-12T01:51:34.336Z,3.43
2019-03-12T01:54:05.462Z,3.40
2019-03-12T01:56:36.693Z,3.33
2019-03-12T01:59:07.828Z,2.93
2019-03-12T02:01:38.984Z,3.03
2019-03-12T02:04:10.367Z,3.40
2019-03-12T02:06:44.640Z,3.27
2019-03-12T02:09:15.950Z,3.37
2019-03-12T02:11:46.986Z,3.40
2019-03-12T02:14:28.663Z,3.60
2019-03-12T02:17:00.788Z,3.60
2019-03-12T02:19:33.014Z,4.10
2019-03-12T02:22:04.123Z,3.73
2019-03-12T02:24:35.198Z,3.80
2019-03-12T02:27:06.368Z,4.30
2019-03-12T02:29:37.531Z,4.07
2019-03-12T02:32:09.223Z,4.30
2019-03-12T02:34:40.215Z,3.93
2019-03-12T02:37:12.643Z,3.70
2019-03-12T02:39:43.846Z,4.00
2019-03-12T02:42:14.988Z,4.47
2019-03-12T02:44:45.873Z,4.37
2019-03-12T02:47:17.450Z,4.57
2019-03-12T02:49:49.026Z,4.40
2019-03-12T02:52:20.230Z,3.33
2019-03-12T02:54:51.763Z,3.33
2019-03-12T02:57:22.703Z,3.33
2019-03-12T02:59:53.684Z,3.23
2019-03-12T03:02:24.639Z,3.63
2019-03-12T03:04:56.120Z,3.50
2019-03-12T03:07:46.095Z,3.73
2019-03-12T03:10:17.416Z,4.37
2019-03-12T03:12:48.551Z,3.63
2019-03-12T03:15:21.629Z,3.77
2019-03-12T03:17:52.948Z,3.50
2019-03-12T03:20:28.598Z,3.47
2019-03-12T03:23:07.484Z,3.13
2019-03-12T03:25:39.284Z,3.30
2019-03-12T03:28:12.079Z,3.77
2019-03-12T03:30:43.384Z,3.30
2019-03-12T03:33:14.629Z,4.27
2019-03-12T03:35:50.377Z,4.47
2019-03-12T03:38:25.467Z,3.60
2019-03-12T03:40:59.823Z,4.10
2019-03-12T03:43:31.612Z,4.13
2019-03-12T03:46:02.618Z,3.13
2019-03-12T03:48:33.624Z,3.60
2019-03-12T03:51:11.064Z,3.33
2019-03-12T03:53:42.051Z,3.50
2019-03-12T03:56:13.566Z,3.00
2019-03-12T03:58:45.307Z,2.90
2019-03-12T04:01:20.152Z,2.83
2019-03-12T04:03:52.162Z,2.93
2019-03-12T04:06:24.462Z,2.70
2019-03-12T04:08:55.889Z,3.10
2019-03-12T04:11:27.377Z,2.70
2019-03-12T04:14:01.876Z,2.50
2019-03-12T04:16:32.914Z,2.80
2019-03-12T04:19:03.945Z,2.73
2019-03-12T04:21:35.076Z,2.27
2019-03-12T04:24:09.003Z,2.57
2019-03-12T04:26:43.363Z,2.43
2019-03-12T04:29:14.180Z,2.80
2019-03-12T04:31:45.239Z,2.57
2019-03-12T04:34:30.215Z,2.53
2019-03-12T04:37:03.807Z,2.37
2019-03-12T04:39:38.192Z,2.87
2019-03-12T04:42:09.576Z,2.00
2019-03-12T04:44:40.522Z,1.93
2019-03-12T04:47:12.153Z,2.50
2019-03-12T04:49:43.161Z,2.50
2019-03-12T04:52:15.918Z,2.80
2019-03-12T04:54:47.220Z,2.80
2019-03-12T04:57:18.363Z,2.57
2019-03-12T04:59:49.709Z,2.30
2019-03-12T05:02:20.903Z,2.23
2019-03-12T05:04:51.869Z,2.93
2019-03-12T05:07:23.470Z,2.30
2019-03-12T05:09:55.497Z,2.20
2019-03-12T05:12:26.951Z,2.13
2019-03-12T05:14:59.343Z,2.27
2019-03-12T05:17:32.619Z,3.20
2019-03-12T05:20:04.864Z,2.50
2019-03-12T05:22:36.023Z,2.00
2019-03-12T05:25:09.015Z,2.03
2019-03-12T05:27:40.578Z,1.83
2019-03-12T05:30:13.976Z,2.23
2019-03-12T05:32:45.182Z,1.97
2019-03-12T05:35:16.293Z,2.83
2019-03-12T05:37:47.375Z,2.97
2019-03-12T05:40:18.681Z,2.60
2019-03-12T05:42:50.173Z,2.23
2019-03-12T05:45:21.150Z,2.80
2019-03-12T05:47:52.352Z,2.80
2019-03-12T05:50:29.767Z,2.63
2019-03-12T05:53:15.200Z,2.33
2019-03-12T05:55:46.895Z,2.80
2019-03-12T05:58:19.234Z,2.87
2019-03-12T06:00:50.335Z,2.63
2019-03-12T06:03:21.536Z,3.13
2019-03-12T06:05:52.741Z,2.23
2019-03-12T06:08:23.780Z,3.30
2019-03-12T06:10:56.344Z,3.40
2019-03-12T06:13:27.188Z,2.80
2019-03-12T06:15:58.073Z,3.60
2019-03-12T06:18:29.541Z,2.80
2019-03-12T06:21:00.811Z,2.93
2019-03-12T06:23:32.030Z,2.97
2019-03-12T06:26:08.230Z,2.83
2019-03-12T06:28:39.984Z,2.90
2019-03-12T06:31:33.164Z,3.57
2019-03-12T06:34:35.469Z,2.90
2019-03-12T06:37:20.248Z,4.10
2019-03-12T06:40:18.998Z,3.37
2019-03-12T06:43:02.103Z,3.30
2019-03-12T06:45:57.056Z,3.03
2019-03-12T06:48:43.110Z,3.00
2019-03-12T06:51:35.849Z,2.67
2019-03-12T06:54:30.860Z,2.70
2019-03-12T06:57:24.038Z,3.30
2019-03-12T07:00:15.591Z,3.00
2019-03-12T07:03:08.691Z,3.30
2019-03-12T07:05:57.843Z,2.87
2019-03-12T07:08:46.162Z,2.30
2019-03-12T07:11:39.099Z,2.73
2019-03-12T07:14:33.795Z,2.70
2019-03-12T07:17:10.740Z,2.77
2019-03-12T07:20:13.306Z,2.37
2019-03-12T07:23:02.619Z,2.60
2019-03-12T07:26:00.549Z,2.20
2019-03-12T07:28:56.761Z,2.40
2019-03-12T07:31:53.297Z,2.33
2019-03-12T07:35:22.605Z,2.30
2019-03-12T07:38:31.085Z,2.30
2019-03-12T07:41:32.316Z,2.50
2019-03-12T07:44:19.709Z,2.27
2019-03-12T07:47:13.647Z,2.77
2019-03-12T07:50:02.951Z,2.50
2019-03-12T07:52:55.247Z,2.30
2019-03-12T07:55:47.220Z,2.37
2019-03-12T07:58:39.868Z,2.13
2019-03-12T08:01:35.841Z,2.80
2019-03-12T08:04:15.876Z,2.47
2019-03-12T08:07:18.640Z,3.17
2019-03-12T08:10:02.434Z,2.90
2019-03-12T08:12:51.189Z,3.43
2019-03-12T08:15:30.089Z,4.10
2019-03-12T08:18:21.111Z,3.23
2019-03-12T08:21:22.319Z,3.13
2019-03-12T08:23:54.389Z,4.83
2019-03-12T08:26:43.520Z,4.60
2019-03-12T08:29:22.427Z,3.43
2019-03-12T08:32:17.787Z,3.77
2019-03-12T08:35:09.866Z,3.40
2019-03-12T08:38:00.697Z,4.00
2019-03-12T08:40:53.621Z,3.77
2019-03-12T08:43:46.438Z,3.30
2019-03-12T08:46:42.416Z,4.13
2019-03-12T08:49:36.979Z,2.80
2019-03-12T08:52:27.966Z,2.40
2019-03-12T08:55:28.689Z,2.27
2019-03-12T08:58:12.453Z,3.50
2019-03-12T09:01:08.369Z,3.23
2019-03-12T09:04:11.155Z,2.97
2019-03-12T09:06:55.694Z,2.63
2019-03-12T09:09:40.146Z,2.10
2019-03-12T09:12:19.096Z,2.27
2019-03-12T09:15:02.348Z,2.50
2019-03-12T09:17:46.580Z,2.60
2019-03-12T09:20:28.335Z,2.60
2019-03-12T09:23:27.571Z,2.10
2019-03-12T09:26:13.996Z,2.00
2019-03-12T09:28:58.123Z,2.43
2019-03-12T09:31:58.106Z,2.93
2019-03-12T09:34:54.480Z,2.43
2019-03-12T09:37:47.410Z,2.77
2019-03-12T09:40:43.466Z,2.30
2019-03-12T09:43:36.373Z,3.07
2019-03-12T09:46:25.149Z,2.30
2019-03-12T09:49:15.469Z,2.80
2019-03-12T09:51:57.907Z,2.60
2019-03-12T09:54:55.872Z,2.43
2019-03-12T09:57:45.280Z,2.07
2019-03-12T10:00:45.155Z,2.37
2019-03-12T10:03:42.384Z,2.43
2019-03-12T10:06:30.907Z,2.43
2019-03-12T10:09:16.927Z,2.20
2019-03-12T10:11:55.769Z,2.50
2019-03-12T10:14:51.426Z,2.30
2019-03-12T10:17:41.303Z,3.03
2019-03-12T10:20:31.057Z,3.30
2019-03-12T10:23:23.187Z,2.60
2019-03-12T10:26:14.077Z,2.60
2019-03-12T10:29:20.089Z,2.57
2019-03-12T10:32:09.846Z,2.30
2019-03-12T10:35:00.411Z,2.50
2019-03-12T10:37:58.903Z,2.70
2019-03-12T10:40:55.436Z,1.90
2019-03-12T10:43:48.795Z,2.20
2019-03-12T10:46:43.012Z,2.60
2019-03-12T10:49:16.662Z,2.03
2019-03-12T10:51:48.652Z,2.23
2019-03-12T10:54:20.647Z,2.90
2019-03-12T10:56:51.815Z,2.43
2019-03-12T10:59:26.106Z,2.53
2019-03-12T11:01:59.369Z,2.50
2019-03-12T11:04:30.346Z,2.07
2019-03-12T11:07:15.546Z,2.40
2019-03-12T11:09:43.496Z,2.87
2019-03-12T11:12:20.241Z,2.97
2019-03-12T11:14:52.431Z,2.47
2019-03-12T11:17:23.785Z,2.60
2019-03-12T11:19:54.885Z,3.80
2019-03-12T11:22:25.915Z,3.40
2019-03-12T11:24:58.011Z,3.40
2019-03-12T11:27:33.156Z,2.33
2019-03-12T11:30:08.989Z,2.47
2019-03-12T11:32:41.288Z,2.90
2019-03-12T11:35:14.794Z,2.53
2019-03-12T11:37:47.691Z,2.70
2019-03-12T11:40:32.607Z,2.87
2019-03-12T11:43:07.517Z,3.10
2019-03-12T11:45:39.459Z,2.80
2019-03-12T11:48:15.024Z,3.40
2019-03-12T11:50:46.199Z,2.77
2019-03-12T11:53:18.481Z,2.80
2019-03-12T11:55:50.400Z,2.80
2019-03-12T11:58:21.586Z,2.93
2019-03-12T12:01:02.103Z,3.43
2019-03-12T12:03:34.702Z,3.53
2019-03-12T12:06:08.772Z,2.77
2019-03-12T12:08:40.067Z,3.30
2019-03-12T12:11:11.344Z,3.10
2019-03-12T12:13:47.604Z,2.33
2019-03-12T12:16:20.123Z,2.70
2019-03-12T12:18:56.057Z,3.00
2019-03-12T12:21:28.951Z,2.60
2019-03-12T12:23:59.928Z,2.40
2019-03-12T12:26:31.152Z,2.47
2019-03-12T12:29:03.687Z,2.67
2019-03-12T12:31:35.141Z,2.93
2019-03-12T12:34:06.335Z,2.70
2019-03-12T12:36:37.495Z,3.20
2019-03-12T12:39:10.083Z,2.80
2019-03-12T12:41:44.820Z,2.37
2019-03-12T12:44:18.741Z,2.93
2019-03-12T12:46:50.054Z,2.50
2019-03-12T12:49:21.571Z,3.07
2019-03-12T12:51:58.981Z,3.50
2019-03-12T12:54:30.743Z,3.33
2019-03-12T12:57:06.752Z,2.50
2019-03-12T12:59:40.264Z,2.63
2019-03-12T13:02:11.602Z,3.20
2019-03-12T13:04:43.161Z,2.73
2019-03-12T13:07:23.311Z,2.60
2019-03-12T13:09:54.914Z,2.47
2019-03-12T13:12:25.959Z,2.87
2019-03-12T13:14:57.391Z,3.20
2019-03-12T13:17:28.502Z,3.10
2019-03-12T13:19:59.800Z,2.50
2019-03-12T13:22:34.753Z,3.67
2019-03-12T13:25:06.594Z,2.70
2019-03-12T13:27:42.454Z,2.40
2019-03-12T13:30:19.442Z,3.27
2019-03-12T13:32:53.265Z,3.03
2019-03-12T13:35:27.240Z,2.57
2019-03-12T13:37:59.797Z,2.73
2019-03-12T13:40:32.090Z,3.17
2019-03-12T13:43:10.481Z,3.20
2019-03-12T13:45:41.486Z,2.83
2019-03-12T13:48:12.597Z,2.27
2019-03-12T13:50:44.382Z,2.30
2019-03-12T13:53:22.336Z,2.23
2019-03-12T13:55:53.354Z,2.70
2019-03-12T13:58:25.072Z,2.90
2019-03-12T14:00:57.078Z,2.20
2019-03-12T14:03:28.076Z,2.50
2019-03-12T14:05:59.145Z,2.57
2019-03-12T14:08:30.593Z,2.67
2019-03-12T14:11:01.911Z,3.00
2019-03-12T14:13:34.370Z,2.73
2019-03-12T14:16:11.902Z,3.17
2019-03-12T14:18:50.701Z,2.80
2019-03-12T14:21:25.075Z,2.40
2019-03-12T14:24:02.877Z,3.43
2019-03-12T14:26:36.237Z,2.50
2019-03-12T14:29:07.223Z,2.80
2019-03-12T14:31:38.744Z,2.60
2019-03-12T14:34:13.301Z,2.20
2019-03-12T14:36:47.212Z,2.50
2019-03-12T14:39:23.176Z,2.10
2019-03-12T14:41:54.627Z,2.17
2019-03-12T14:44:25.991Z,2.53
2019-03-12T14:46:57.242Z,2.37
2019-03-12T14:49:31.123Z,2.30
2019-03-12T14:52:27.734Z,2.30
2019-03-12T14:55:02.871Z,2.00
2019-03-12T14:57:34.237Z,2.20
2019-03-12T15:00:10.860Z,1.97
2019-03-12T15:02:42.357Z,2.00
2019-03-12T15:05:16.093Z,1.90
2019-03-12T15:07:48.777Z,1.97
2019-03-12T15:10:20.126Z,2.50
2019-03-12T15:12:54.450Z,2.40
2019-03-12T15:15:27.735Z,2.60
2019-03-12T15:18:00.521Z,2.23
2019-03-12T15:20:32.096Z,2.47
2019-03-12T15:23:08.486Z,2.77
2019-03-12T15:25:39.261Z,2.60
2019-03-12T15:28:14.403Z,2.20
2019-03-12T15:30:47.408Z,2.70
2019-03-12T15:33:18.547Z,2.63
2019-03-12T15:35:52.835Z,2.37
2019-03-12T15:38:28.326Z,2.63
2019-03-12T15:41:00.206Z,2.07
2019-03-12T15:43:31.655Z,2.53
2019-03-12T15:46:03.175Z,2.73
2019-03-12T15:48:34.594Z,2.30
2019-03-12T15:51:16.826Z,2.50
2019-03-12T15:54:03.327Z,2.00
2019-03-12T15:56:26.801Z,2.40
2019-03-12T15:59:00.089Z,2.00
2019-03-12T16:01:38.078Z,2.73
2019-03-12T16:04:24.110Z,2.67
2019-03-12T16:07:07.521Z,2.20
2019-03-12T16:09:57.386Z,2.37
2019-03-12T16:12:30.381Z,2.20
2019-03-12T16:15:01.939Z,2.10
2019-03-12T16:17:35.185Z,1.70
2019-03-12T16:20:07.086Z,2.40
2019-03-12T16:22:38.675Z,2.33
2019-03-12T16:25:11.312Z,2.67
2019-03-12T16:27:47.329Z,1.83
2019-03-12T16:30:21.082Z,2.60
2019-03-12T16:32:53.186Z,2.00
2019-03-12T16:35:28.701Z,1.90
2019-03-12T16:38:03.316Z,2.50
2019-03-12T16:40:34.558Z,2.73
2019-03-12T16:43:06.112Z,2.07
2019-03-12T16:45:41.707Z,2.07
2019-03-12T16:48:14.238Z,2.00
2019-03-12T16:50:46.104Z,2.40
2019-03-12T16:53:21.815Z,2.03
2019-03-12T16:55:58.747Z,2.97
2019-03-12T16:58:34.350Z,2.03
2019-03-12T17:01:05.421Z,1.67
2019-03-12T17:03:38.868Z,1.77
2019-03-12T17:06:15.791Z,1.87
2019-03-12T17:08:48.277Z,1.67
2019-03-12T17:11:24.932Z,1.90
2019-03-12T17:14:03.551Z,2.10
2019-03-12T17:16:41.419Z,2.27
2019-03-12T17:19:12.314Z,1.90
2019-03-12T17:22:04.917Z,1.90
2019-03-12T17:24:41.441Z,2.20
2019-03-12T17:27:13.069Z,1.80
2019-03-12T17:29:44.566Z,2.27
2019-03-12T17:32:18.771Z,2.00
2019-03-12T17:34:49.933Z,1.43
2019-03-12T17:37:22.015Z,1.70
2019-03-12T17:39:53.265Z,1.90
2019-03-12T17:42:24.751Z,2.20
2019-03-12T17:44:56.819Z,1.73
2019-03-12T17:47:28.336Z,2.17
2019-03-12T17:50:02.809Z,1.77
2019-03-12T17:52:42.473Z,1.93
2019-03-12T17:55:14.577Z,1.53
2019-03-12T17:57:46.148Z,1.50
2019-03-12T18:00:18.949Z,1.63
2019-03-12T18:02:50.677Z,2.00
2019-03-12T18:05:22.951Z,2.13
2019-03-12T18:07:54.810Z,2.07
2019-03-12T18:10:50.215Z,1.83
2019-03-12T18:13:24.091Z,2.03
2019-03-12T18:16:08.124Z,1.70
2019-03-12T18:18:41.482Z,2.10
2019-03-12T18:21:28.209Z,1.93
2019-03-12T18:24:02.676Z,1.50
2019-03-12T18:26:36.838Z,1.90
2019-03-12T18:29:15.863Z,1.73
2019-03-12T18:32:01.730Z,2.07
2019-03-12T18:34:38.112Z,1.90
2019-03-12T18:37:23.130Z,1.43
2019-03-12T18:39:54.747Z,1.97
2019-03-12T18:42:58.796Z,1.50
2019-03-12T18:45:57.876Z,1.60
2019-03-12T18:48:44.804Z,2.07
2019-03-12T18:51:16.273Z,2.37
2019-03-12T18:53:47.980Z,2.13
2019-03-12T18:56:26.677Z,2.67
2019-03-12T18:59:09.195Z,1.80
2019-03-12T19:01:48.850Z,1.70
2019-03-12T19:04:20.587Z,1.80
2019-03-12T19:06:59.282Z,2.27
2019-03-12T19:09:36.085Z,1.43
2019-03-12T19:12:10.965Z,2.07
2019-03-12T19:14:42.859Z,1.73
2019-03-12T19:17:17.174Z,1.97
2019-03-12T19:19:53.782Z,1.87
2019-03-12T19:22:27.695Z,1.90
2019-03-12T19:25:03.788Z,1.93
2019-03-12T19:27:42.780Z,2.20
2019-03-12T19:30:20.413Z,1.73
2019-03-12T19:33:13.935Z,1.80
2019-03-12T19:35:47.073Z,2.00
2019-03-12T19:38:18.627Z,1.67
2019-03-12T19:40:50.965Z,1.40
2019-03-12T19:43:27.976Z,2.03
2019-03-12T19:45:59.541Z,1.60
2019-03-12T19:48:34.383Z,2.10
2019-03-12T19:51:10.363Z,1.83
2019-03-12T19:53:45.234Z,1.60
2019-03-12T19:56:37.291Z,1.60
2019-03-12T19:59:11.587Z,1.70
2019-03-12T20:01:46.881Z,1.20
2019-03-12T20:04:23.697Z,1.83
2019-03-12T20:07:01.019Z,2.10
2019-03-12T20:10:26.718Z,1.67
2019-03-12T20:13:57.161Z,1.40
2019-03-12T20:17:09.237Z,1.83
2019-03-12T20:20:14.042Z,1.57
2019-03-12T20:23:29.925Z,1.60
2019-03-12T20:26:44.451Z,2.00
2019-03-12T20:30:05.940Z,1.30
2019-03-12T20:33:23.569Z,1.33
2019-03-12T20:36:30.269Z,1.43
2019-03-12T20:39:44.888Z,1.33
2019-03-12T20:43:10.933Z,1.50
2019-03-12T20:46:25.321Z,1.43
2019-03-12T20:49:43.978Z,1.20
2019-03-12T20:53:00.139Z,1.43
2019-03-12T20:56:18.923Z,1.40
2019-03-12T20:59:35.225Z,1.57
2019-03-12T21:02:55.240Z,1.57
2019-03-12T21:06:10.887Z,1.73
2019-03-12T21:09:28.425Z,1.80
2019-03-12T21:12:43.982Z,1.30
2019-03-12T21:16:11.775Z,1.50
2019-03-12T21:19:20.402Z,1.20
2019-03-12T21:22:27.393Z,1.70
2019-03-12T21:25:49.284Z,1.30
2019-03-12T21:28:55.556Z,1.63
2019-03-12T21:31:28.311Z,1.70
2019-03-12T21:34:00.327Z,1.47
2019-03-12T21:36:33.835Z,1.63
2019-03-12T21:39:16.128Z,1.27
2019-03-12T21:41:47.829Z,1.17
2019-03-12T21:44:30.963Z,1.10
2019-03-12T21:47:04.984Z,1.40
2019-03-12T21:49:48.826Z,1.27
2019-03-12T21:52:27.421Z,1.40
2019-03-12T21:54:59.090Z,1.10
2019-03-12T21:57:33.513Z,1.40
2019-03-12T22:00:10.476Z,1.40
2019-03-12T22:02:43.427Z,1.77
2019-03-12T22:05:14.972Z,1.60
2019-03-12T22:07:47.431Z,1.53
2019-03-12T22:10:18.869Z,1.57
2019-03-12T22:12:53.728Z,1.37
2019-03-12T22:15:30.925Z,1.30
2019-03-12T22:18:10.201Z,1.07
2019-03-12T22:20:42.462Z,1.50
2019-03-12T22:23:20.441Z,1.50
2019-03-12T22:25:51.611Z,1.20
2019-03-12T22:28:23.277Z,1.10
2019-03-12T22:30:54.756Z,1.27
2019-03-12T22:33:25.993Z,1.40
2019-03-12T22:35:56.968Z,1.23
2019-03-12T22:38:28.240Z,1.57
2019-03-12T22:40:59.281Z,1.40
2019-03-12T22:43:30.846Z,1.30
2019-03-12T22:46:06.108Z,1.37
2019-03-12T22:48:39.168Z,1.13
2019-03-12T22:51:11.220Z,1.47
2019-03-12T22:53:42.684Z,1.33
2019-03-12T22:56:17.350Z,1.20
2019-03-12T22:58:51.004Z,1.30
2019-03-12T23:01:44.446Z,1.33
2019-03-12T23:04:36.233Z,1.23
2019-03-12T23:07:25.081Z,1.20
2019-03-12T23:10:01.399Z,1.40
2019-03-12T23:12:33.949Z,1.27
2019-03-12T23:15:05.891Z,1.30
2019-03-12T23:17:52.653Z,1.20
2019-03-12T23:20:23.835Z,1.30
2019-03-12T23:22:58.381Z,1.63
2019-03-12T23:25:30.106Z,1.27
2019-03-12T23:28:11.721Z,1.50
2019-03-12T23:30:48.669Z,1.47
2019-03-12T23:33:19.924Z,1.70
2019-03-12T23:35:56.694Z,1.10
2019-03-12T23:38:29.335Z,1.13
2019-03-12T23:41:00.298Z,1.13
2019-03-12T23:43:34.111Z,1.30
2019-03-12T23:46:05.108Z,1.10
2019-03-12T23:48:43.635Z,1.20
2019-03-12T23:51:15.136Z,1.20
2019-03-12T23:53:46.100Z,1.27
2019-03-12T23:56:19.252Z,1.30
2019-03-12T23:58:50.066Z,1.40
